sensor_id;sensor_type;location;lat;lon;timestamp;pressure;altitude;pressure_sealevel;temperature;humidity
71638;BME280;59485;43.542;-5.676;2023-02-16T00:00:40;102795.59;;;9.78;100.00
71638;BME280;59485;43.542;-5.676;2023-02-16T00:03:09;102800.06;;;9.79;100.00
71638;BME280;59485;43.542;-5.676;2023-02-16T00:05:35;102809.16;;;9.79;100.00
71638;BME280;59485;43.542;-5.676;2023-02-16T00:08:00;102804.13;;;9.85;100.00
71638;BME280;59485;43.542;-5.676;2023-02-16T00:10:27;102800.13;;;9.89;100.00
71638;BME280;59485;43.542;-5.676;2023-02-16T00:12:58;102801.00;;;9.89;100.00
71638;BME280;59485;43.542;-5.676;2023-02-16T00:15:41;102796.41;;;9.90;100.00
71638;BME280;59485;43.542;-5.676;2023-02-16T00:18:14;102792.78;;;9.89;100.00
71638;BME280;59485;43.542;-5.676;2023-02-16T00:20:40;102780.34;;;9.85;100.00
71638;BME280;59485;43.542;-5.676;2023-02-16T00:23:06;102781.50;;;9.83;100.00
71638;BME280;59485;43.542;-5.676;2023-02-16T00:25:31;102785.66;;;9.77;100.00
71638;BME280;59485;43.542;-5.676;2023-02-16T00:27:56;102792.13;;;9.76;100.00
71638;BME280;59485;43.542;-5.676;2023-02-16T00:30:21;102793.88;;;9.77;100.00
71638;BME280;59485;43.542;-5.676;2023-02-16T00:32:47;102792.00;;;9.77;100.00
71638;BME280;59485;43.542;-5.676;2023-02-16T00:35:19;102793.47;;;9.82;100.00
71638;BME280;59485;43.542;-5.676;2023-02-16T00:37:45;102799.53;;;9.85;100.00
71638;BME280;59485;43.542;-5.676;2023-02-16T00:40:10;102796.66;;;9.87;100.00
71638;BME280;59485;43.542;-5.676;2023-02-16T00:42:36;102789.44;;;9.86;100.00
71638;BME280;59485;43.542;-5.676;2023-02-16T00:45:02;102781.66;;;9.81;100.00
71638;BME280;59485;43.542;-5.676;2023-02-16T00:47:38;102785.66;;;9.77;100.00
71638;BME280;59485;43.542;-5.676;2023-02-16T00:52:39;102786.47;;;9.68;100.00
71638;BME280;59485;43.542;-5.676;2023-02-16T00:55:16;102789.50;;;9.65;100.00
71638;BME280;59485;43.542;-5.676;2023-02-16T00:57:53;102776.06;;;9.62;100.00
71638;BME280;59485;43.542;-5.676;2023-02-16T01:00:35;102773.56;;;9.59;100.00
71638;BME280;59485;43.542;-5.676;2023-02-16T01:03:04;102769.53;;;9.53;100.00
71638;BME280;59485;43.542;-5.676;2023-02-16T01:05:33;102769.78;;;9.50;100.00
71638;BME280;59485;43.542;-5.676;2023-02-16T01:07:58;102769.91;;;9.49;100.00
71638;BME280;59485;43.542;-5.676;2023-02-16T01:10:42;102769.06;;;9.48;100.00
71638;BME280;59485;43.542;-5.676;2023-02-16T01:13:16;102768.78;;;9.51;100.00
71638;BME280;59485;43.542;-5.676;2023-02-16T01:15:42;102768.38;;;9.56;100.00
71638;BME280;59485;43.542;-5.676;2023-02-16T01:18:07;102771.84;;;9.58;100.00
71638;BME280;59485;43.542;-5.676;2023-02-16T01:20:34;102768.09;;;9.59;100.00
71638;BME280;59485;43.542;-5.676;2023-02-16T01:23:00;102772.56;;;9.60;100.00
71638;BME280;59485;43.542;-5.676;2023-02-16T01:25:26;102770.84;;;9.59;100.00
71638;BME280;59485;43.542;-5.676;2023-02-16T01:27:54;102762.78;;;9.57;100.00
71638;BME280;59485;43.542;-5.676;2023-02-16T01:30:23;102767.41;;;9.57;100.00
71638;BME280;59485;43.542;-5.676;2023-02-16T01:32:49;102763.91;;;9.55;100.00
71638;BME280;59485;43.542;-5.676;2023-02-16T01:35:21;102755.50;;;9.47;100.00
71638;BME280;59485;43.542;-5.676;2023-02-16T01:37:50;102756.03;;;9.40;100.00
71638;BME280;59485;43.542;-5.676;2023-02-16T01:40:35;102754.84;;;9.33;100.00
71638;BME280;59485;43.542;-5.676;2023-02-16T01:43:03;102765.47;;;9.27;100.00
71638;BME280;59485;43.542;-5.676;2023-02-16T01:45:33;102763.97;;;9.23;100.00
71638;BME280;59485;43.542;-5.676;2023-02-16T01:48:01;102772.19;;;9.23;100.00
71638;BME280;59485;43.542;-5.676;2023-02-16T01:50:29;102772.19;;;9.23;100.00
71638;BME280;59485;43.542;-5.676;2023-02-16T01:53:16;102770.31;;;9.23;100.00
71638;BME280;59485;43.542;-5.676;2023-02-16T01:55:44;102783.88;;;9.25;100.00
71638;BME280;59485;43.542;-5.676;2023-02-16T01:58:17;102776.53;;;9.25;100.00
71638;BME280;59485;43.542;-5.676;2023-02-16T02:03:17;102788.53;;;9.34;100.00
71638;BME280;59485;43.542;-5.676;2023-02-16T02:06:02;102791.91;;;9.37;100.00
71638;BME280;59485;43.542;-5.676;2023-02-16T02:11:04;102805.91;;;9.44;100.00
71638;BME280;59485;43.542;-5.676;2023-02-16T02:16:06;102811.31;;;9.55;100.00
71638;BME280;59485;43.542;-5.676;2023-02-16T02:18:32;102808.72;;;9.54;100.00
71638;BME280;59485;43.542;-5.676;2023-02-16T02:26:39;102780.66;;;9.61;100.00
71638;BME280;59485;43.542;-5.676;2023-02-16T02:29:19;102783.09;;;9.55;100.00
71638;BME280;59485;43.542;-5.676;2023-02-16T02:36:48;102781.94;;;9.36;100.00
71638;BME280;59485;43.542;-5.676;2023-02-16T02:41:50;102779.41;;;9.24;100.00
71638;BME280;59485;43.542;-5.676;2023-02-16T02:44:29;102786.72;;;9.23;100.00
71638;BME280;59485;43.542;-5.676;2023-02-16T02:46:55;102793.69;;;9.27;100.00
71638;BME280;59485;43.542;-5.676;2023-02-16T02:49:21;102785.47;;;9.27;100.00
71638;BME280;59485;43.542;-5.676;2023-02-16T02:51:46;102789.22;;;9.26;100.00
71638;BME280;59485;43.542;-5.676;2023-02-16T02:59:45;102784.28;;;9.20;100.00
71638;BME280;59485;43.542;-5.676;2023-02-16T03:02:30;102783.53;;;9.18;100.00
71638;BME280;59485;43.542;-5.676;2023-02-16T03:04:56;102788.38;;;9.15;100.00
71638;BME280;59485;43.542;-5.676;2023-02-16T03:07:22;102782.72;;;9.07;100.00
71638;BME280;59485;43.542;-5.676;2023-02-16T03:10:08;102777.78;;;9.00;100.00
71638;BME280;59485;43.542;-5.676;2023-02-16T03:12:52;102782.03;;;8.93;100.00
71638;BME280;59485;43.542;-5.676;2023-02-16T03:15:18;102781.53;;;8.88;100.00
71638;BME280;59485;43.542;-5.676;2023-02-16T03:17:44;102780.81;;;8.86;100.00
71638;BME280;59485;43.542;-5.676;2023-02-16T03:20:28;102794.13;;;8.80;100.00
71638;BME280;59485;43.542;-5.676;2023-02-16T03:23:12;102803.59;;;8.76;100.00
71638;BME280;59485;43.542;-5.676;2023-02-16T03:25:56;102797.75;;;8.80;100.00
71638;BME280;59485;43.542;-5.676;2023-02-16T03:28:40;102794.88;;;8.82;100.00
71638;BME280;59485;43.542;-5.676;2023-02-16T03:31:30;102791.28;;;8.81;100.00
71638;BME280;59485;43.542;-5.676;2023-02-16T03:33:56;102800.72;;;8.77;100.00
71638;BME280;59485;43.542;-5.676;2023-02-16T03:36:26;102803.84;;;8.73;100.00
71638;BME280;59485;43.542;-5.676;2023-02-16T03:38:52;102806.13;;;8.68;100.00
71638;BME280;59485;43.542;-5.676;2023-02-16T03:41:18;102804.50;;;8.65;100.00
71638;BME280;59485;43.542;-5.676;2023-02-16T03:43:43;102806.03;;;8.58;100.00
71638;BME280;59485;43.542;-5.676;2023-02-16T03:46:08;102810.38;;;8.49;100.00
71638;BME280;59485;43.542;-5.676;2023-02-16T03:48:34;102807.66;;;8.49;100.00
71638;BME280;59485;43.542;-5.676;2023-02-16T03:50:59;102803.06;;;8.50;100.00
71638;BME280;59485;43.542;-5.676;2023-02-16T03:53:24;102798.56;;;8.49;100.00
71638;BME280;59485;43.542;-5.676;2023-02-16T03:55:50;102796.97;;;8.46;100.00
71638;BME280;59485;43.542;-5.676;2023-02-16T03:58:16;102800.81;;;8.44;100.00
71638;BME280;59485;43.542;-5.676;2023-02-16T04:00:42;102808.88;;;8.34;100.00
71638;BME280;59485;43.542;-5.676;2023-02-16T04:03:08;102811.63;;;8.34;100.00
71638;BME280;59485;43.542;-5.676;2023-02-16T04:05:34;102807.16;;;8.33;100.00
71638;BME280;59485;43.542;-5.676;2023-02-16T04:07:59;102811.75;;;8.33;100.00
71638;BME280;59485;43.542;-5.676;2023-02-16T04:10:25;102802.69;;;8.32;100.00
71638;BME280;59485;43.542;-5.676;2023-02-16T04:12:50;102797.34;;;8.31;100.00
71638;BME280;59485;43.542;-5.676;2023-02-16T04:15:20;102800.81;;;8.21;100.00
71638;BME280;59485;43.542;-5.676;2023-02-16T04:17:45;102797.22;;;8.21;100.00
71638;BME280;59485;43.542;-5.676;2023-02-16T04:20:13;102799.06;;;8.20;100.00
71638;BME280;59485;43.542;-5.676;2023-02-16T04:22:38;102797.69;;;8.15;100.00
71638;BME280;59485;43.542;-5.676;2023-02-16T04:25:04;102808.13;;;8.10;100.00
71638;BME280;59485;43.542;-5.676;2023-02-16T04:27:33;102806.41;;;8.09;100.00
71638;BME280;59485;43.542;-5.676;2023-02-16T04:29:58;102805.41;;;8.10;100.00
71638;BME280;59485;43.542;-5.676;2023-02-16T04:32:23;102801.91;;;8.08;100.00
71638;BME280;59485;43.542;-5.676;2023-02-16T04:34:49;102801.91;;;8.08;100.00
71638;BME280;59485;43.542;-5.676;2023-02-16T04:37:14;102800.19;;;8.07;100.00
71638;BME280;59485;43.542;-5.676;2023-02-16T04:39:39;102796.72;;;8.05;100.00
71638;BME280;59485;43.542;-5.676;2023-02-16T04:42:05;102792.00;;;8.07;100.00
71638;BME280;59485;43.542;-5.676;2023-02-16T04:44:30;102790.63;;;8.01;100.00
71638;BME280;59485;43.542;-5.676;2023-02-16T04:46:55;102794.47;;;7.99;100.00
71638;BME280;59485;43.542;-5.676;2023-02-16T04:49:21;102801.19;;;7.95;100.00
71638;BME280;59485;43.542;-5.676;2023-02-16T04:51:46;102804.28;;;7.90;100.00
71638;BME280;59485;43.542;-5.676;2023-02-16T04:54:12;102806.53;;;7.85;100.00
71638;BME280;59485;43.542;-5.676;2023-02-16T04:56:37;102800.31;;;7.83;100.00
71638;BME280;59485;43.542;-5.676;2023-02-16T04:59:03;102807.84;;;7.79;100.00
71638;BME280;59485;43.542;-5.676;2023-02-16T05:01:28;102811.72;;;7.77;100.00
71638;BME280;59485;43.542;-5.676;2023-02-16T05:03:54;102818.78;;;7.79;100.00
71638;BME280;59485;43.542;-5.676;2023-02-16T05:06:19;102820.28;;;7.83;100.00
71638;BME280;59485;43.542;-5.676;2023-02-16T05:08:45;102831.09;;;7.85;100.00
71638;BME280;59485;43.542;-5.676;2023-02-16T05:11:10;102824.50;;;7.87;100.00
71638;BME280;59485;43.542;-5.676;2023-02-16T05:13:55;102829.72;;;7.90;100.00
71638;BME280;59485;43.542;-5.676;2023-02-16T05:16:38;102838.66;;;7.93;100.00
71638;BME280;59485;43.542;-5.676;2023-02-16T05:19:04;102837.41;;;7.97;100.00
71638;BME280;59485;43.542;-5.676;2023-02-16T05:21:29;102845.25;;;8.01;100.00
71638;BME280;59485;43.542;-5.676;2023-02-16T05:23:55;102843.28;;;8.03;100.00
71638;BME280;59485;43.542;-5.676;2023-02-16T05:26:20;102840.66;;;8.02;100.00
71638;BME280;59485;43.542;-5.676;2023-02-16T05:28:45;102847.22;;;7.99;100.00
71638;BME280;59485;43.542;-5.676;2023-02-16T05:31:11;102843.63;;;7.99;100.00
71638;BME280;59485;43.542;-5.676;2023-02-16T05:33:36;102851.22;;;7.95;100.00
71638;BME280;59485;43.542;-5.676;2023-02-16T05:36:01;102853.19;;;7.93;100.00
71638;BME280;59485;43.542;-5.676;2023-02-16T05:38:27;102850.81;;;7.88;100.00
71638;BME280;59485;43.542;-5.676;2023-02-16T05:40:52;102854.78;;;7.84;100.00
71638;BME280;59485;43.542;-5.676;2023-02-16T05:43:17;102854.03;;;7.82;100.00
71638;BME280;59485;43.542;-5.676;2023-02-16T05:45:43;102859.88;;;7.78;100.00
71638;BME280;59485;43.542;-5.676;2023-02-16T05:48:08;102859.00;;;7.77;100.00
71638;BME280;59485;43.542;-5.676;2023-02-16T05:50:33;102844.59;;;7.75;100.00
71638;BME280;59485;43.542;-5.676;2023-02-16T05:52:59;102848.81;;;7.68;100.00
71638;BME280;59485;43.542;-5.676;2023-02-16T05:55:24;102843.47;;;7.67;100.00
71638;BME280;59485;43.542;-5.676;2023-02-16T05:57:49;102846.31;;;7.65;100.00
71638;BME280;59485;43.542;-5.676;2023-02-16T06:00:15;102850.78;;;7.66;100.00
71638;BME280;59485;43.542;-5.676;2023-02-16T06:02:40;102842.47;;;7.68;100.00
71638;BME280;59485;43.542;-5.676;2023-02-16T06:05:06;102851.53;;;7.68;100.00
71638;BME280;59485;43.542;-5.676;2023-02-16T06:07:31;102847.94;;;7.68;100.00
71638;BME280;59485;43.542;-5.676;2023-02-16T06:09:57;102844.34;;;7.67;100.00
71638;BME280;59485;43.542;-5.676;2023-02-16T06:12:22;102851.53;;;7.68;100.00
71638;BME280;59485;43.542;-5.676;2023-02-16T06:14:50;102847.94;;;7.68;100.00
71638;BME280;59485;43.542;-5.676;2023-02-16T06:17:15;102849.03;;;7.65;100.00
71638;BME280;59485;43.542;-5.676;2023-02-16T06:19:41;102850.91;;;7.65;100.00
71638;BME280;59485;43.542;-5.676;2023-02-16T06:22:06;102850.03;;;7.64;100.00
71638;BME280;59485;43.542;-5.676;2023-02-16T06:24:31;102854.72;;;7.62;100.00
71638;BME280;59485;43.542;-5.676;2023-02-16T06:26:57;102854.00;;;7.60;100.00
71638;BME280;59485;43.542;-5.676;2023-02-16T06:29:22;102857.84;;;7.58;100.00
71638;BME280;59485;43.542;-5.676;2023-02-16T06:31:47;102861.78;;;7.53;100.00
71638;BME280;59485;43.542;-5.676;2023-02-16T06:34:13;102854.56;;;7.52;100.00
71638;BME280;59485;43.542;-5.676;2023-02-16T06:36:38;102865.63;;;7.51;100.00
71638;BME280;59485;43.542;-5.676;2023-02-16T06:39:03;102868.59;;;7.48;100.00
71638;BME280;59485;43.542;-5.676;2023-02-16T06:41:29;102870.34;;;7.49;100.00
71638;BME280;59485;43.542;-5.676;2023-02-16T06:44:07;102870.44;;;7.47;100.00
71638;BME280;59485;43.542;-5.676;2023-02-16T06:46:32;102877.75;;;7.47;100.00
71638;BME280;59485;43.542;-5.676;2023-02-16T06:48:58;102879.50;;;7.48;100.00
71638;BME280;59485;43.542;-5.676;2023-02-16T06:51:23;102877.53;;;7.50;100.00
71638;BME280;59485;43.542;-5.676;2023-02-16T06:53:49;102884.75;;;7.51;100.00
71638;BME280;59485;43.542;-5.676;2023-02-16T06:56:14;102875.41;;;7.53;100.00
71638;BME280;59485;43.542;-5.676;2023-02-16T06:58:40;102880.66;;;7.57;100.00
71638;BME280;59485;43.542;-5.676;2023-02-16T07:01:05;102879.78;;;7.56;100.00
71638;BME280;59485;43.542;-5.676;2023-02-16T07:03:31;102886.97;;;7.57;100.00
71638;BME280;59485;43.542;-5.676;2023-02-16T07:05:56;102897.78;;;7.59;100.00
71638;BME280;59485;43.542;-5.676;2023-02-16T07:08:21;102907.56;;;7.61;100.00
71638;BME280;59485;43.542;-5.676;2023-02-16T07:10:47;102899.28;;;7.63;100.00
71638;BME280;59485;43.542;-5.676;2023-02-16T07:13:12;102894.69;;;7.63;100.00
71638;BME280;59485;43.542;-5.676;2023-02-16T07:15:38;102902.75;;;7.65;100.00
71638;BME280;59485;43.542;-5.676;2023-02-16T07:18:03;102901.78;;;7.66;100.00
71638;BME280;59485;43.542;-5.676;2023-02-16T07:20:29;102909.72;;;7.69;100.00
71638;BME280;59485;43.542;-5.676;2023-02-16T07:22:54;102908.72;;;7.70;100.00
71638;BME280;59485;43.542;-5.676;2023-02-16T07:25:20;102905.16;;;7.69;100.00
71638;BME280;59485;43.542;-5.676;2023-02-16T07:27:45;102914.31;;;7.68;100.00
71638;BME280;59485;43.542;-5.676;2023-02-16T07:30:11;102918.66;;;7.71;100.00
71638;BME280;59485;43.542;-5.676;2023-02-16T07:32:37;102912.31;;;7.70;100.00
71638;BME280;59485;43.542;-5.676;2023-02-16T07:35:02;102920.41;;;7.72;100.00
71638;BME280;59485;43.542;-5.676;2023-02-16T07:37:28;102924.97;;;7.71;100.00
71638;BME280;59485;43.542;-5.676;2023-02-16T07:39:53;102926.50;;;7.75;100.00
71638;BME280;59485;43.542;-5.676;2023-02-16T07:42:19;102925.41;;;7.78;100.00
71638;BME280;59485;43.542;-5.676;2023-02-16T07:44:45;102932.47;;;7.80;100.00
71638;BME280;59485;43.542;-5.676;2023-02-16T07:47:10;102925.78;;;7.84;100.00
71638;BME280;59485;43.542;-5.676;2023-02-16T07:49:37;102929.13;;;7.88;100.00
71638;BME280;59485;43.542;-5.676;2023-02-16T07:52:02;102936.22;;;7.90;100.00
71638;BME280;59485;43.542;-5.676;2023-02-16T07:54:29;102936.97;;;7.93;100.00
71638;BME280;59485;43.542;-5.676;2023-02-16T07:56:55;102936.84;;;7.94;100.00
71638;BME280;59485;43.542;-5.676;2023-02-16T07:59:20;102930.16;;;7.98;100.00
71638;BME280;59485;43.542;-5.676;2023-02-16T08:01:45;102929.28;;;7.98;100.00
71638;BME280;59485;43.542;-5.676;2023-02-16T08:04:11;102928.28;;;7.99;100.00
71638;BME280;59485;43.542;-5.676;2023-02-16T08:06:36;102928.06;;;8.02;100.00
71638;BME280;59485;43.542;-5.676;2023-02-16T08:09:01;102931.53;;;8.04;100.00
71638;BME280;59485;43.542;-5.676;2023-02-16T08:11:27;102932.25;;;8.06;100.00
71638;BME280;59485;43.542;-5.676;2023-02-16T08:13:52;102936.63;;;8.08;100.00
71638;BME280;59485;43.542;-5.676;2023-02-16T08:16:19;102935.41;;;8.12;100.00
71638;BME280;59485;43.542;-5.676;2023-02-16T08:18:45;102947.81;;;8.16;100.00
71638;BME280;59485;43.542;-5.676;2023-02-16T08:21:12;102949.31;;;8.20;100.00
71638;BME280;59485;43.542;-5.676;2023-02-16T08:23:54;102955.41;;;8.24;100.00
71638;BME280;59485;43.542;-5.676;2023-02-16T08:26:20;102956.16;;;8.26;100.00
71638;BME280;59485;43.542;-5.676;2023-02-16T08:28:46;102962.38;;;8.28;100.00
71638;BME280;59485;43.542;-5.676;2023-02-16T08:31:20;102967.63;;;8.31;100.00
71638;BME280;59485;43.542;-5.676;2023-02-16T08:33:50;102963.78;;;8.34;100.00
71638;BME280;59485;43.542;-5.676;2023-02-16T08:36:17;102968.00;;;8.38;100.00
71638;BME280;59485;43.542;-5.676;2023-02-16T08:38:45;102974.97;;;8.42;100.00
71638;BME280;59485;43.542;-5.676;2023-02-16T08:41:14;102976.34;;;8.47;100.00
71638;BME280;59485;43.542;-5.676;2023-02-16T08:43:40;102982.31;;;8.52;100.00
71638;BME280;59485;43.542;-5.676;2023-02-16T08:46:05;102983.53;;;8.59;100.00
71638;BME280;59485;43.542;-5.676;2023-02-16T08:48:31;102981.31;;;8.64;100.00
71638;BME280;59485;43.542;-5.676;2023-02-16T08:50:59;102987.28;;;8.70;100.00
71638;BME280;59485;43.542;-5.676;2023-02-16T08:53:31;102984.94;;;8.76;100.00
71638;BME280;59485;43.542;-5.676;2023-02-16T08:55:58;102983.56;;;8.82;100.00
71638;BME280;59485;43.542;-5.676;2023-02-16T08:58:24;102984.78;;;8.89;100.00
71638;BME280;59485;43.542;-5.676;2023-02-16T09:00:51;102981.69;;;8.93;100.00
71638;BME280;59485;43.542;-5.676;2023-02-16T09:03:16;102993.00;;;9.00;100.00
71638;BME280;59485;43.542;-5.676;2023-02-16T09:05:45;102986.91;;;9.08;100.00
71638;BME280;59485;43.542;-5.676;2023-02-16T09:08:11;102989.00;;;9.15;100.00
71638;BME280;59485;43.542;-5.676;2023-02-16T09:10:38;102988.34;;;9.23;100.00
71638;BME280;59485;43.542;-5.676;2023-02-16T09:13:04;102998.69;;;9.30;100.00
71638;BME280;59485;43.542;-5.676;2023-02-16T09:15:30;102993.44;;;9.38;100.00
71638;BME280;59485;43.542;-5.676;2023-02-16T09:17:56;103001.00;;;9.46;100.00
71638;BME280;59485;43.542;-5.676;2023-02-16T09:20:21;103003.56;;;9.59;100.00
71638;BME280;59485;43.542;-5.676;2023-02-16T09:22:47;103010.13;;;9.67;100.00
71638;BME280;59485;43.542;-5.676;2023-02-16T09:25:13;103011.84;;;9.79;100.00
71638;BME280;59485;43.542;-5.676;2023-02-16T09:27:39;103007.44;;;9.88;100.00
71638;BME280;59485;43.542;-5.676;2023-02-16T09:30:05;103013.88;;;9.98;100.00
71638;BME280;59485;43.542;-5.676;2023-02-16T09:32:31;103014.09;;;10.06;100.00
71638;BME280;59485;43.542;-5.676;2023-02-16T09:34:56;103014.06;;;10.18;100.00
71638;BME280;59485;43.542;-5.676;2023-02-16T09:37:22;103010.53;;;10.27;100.00
71638;BME280;59485;43.542;-5.676;2023-02-16T09:39:47;103000.63;;;10.35;100.00
71638;BME280;59485;43.542;-5.676;2023-02-16T09:42:24;103008.94;;;10.45;100.00
71638;BME280;59485;43.542;-5.676;2023-02-16T09:45:01;103004.50;;;10.53;100.00
71638;BME280;59485;43.542;-5.676;2023-02-16T09:47:32;103011.78;;;10.64;100.00
71638;BME280;59485;43.542;-5.676;2023-02-16T09:49:59;103012.69;;;10.74;100.00
71638;BME280;59485;43.542;-5.676;2023-02-16T09:52:35;103015.34;;;10.85;100.00
71638;BME280;59485;43.542;-5.676;2023-02-16T09:55:03;103003.53;;;10.95;100.00
71638;BME280;59485;43.542;-5.676;2023-02-16T10:00:05;103018.81;;;11.18;100.00
71638;BME280;59485;43.542;-5.676;2023-02-16T10:10:03;103004.31;;;11.65;100.00
71638;BME280;59485;43.542;-5.676;2023-02-16T10:12:32;103014.19;;;11.78;100.00
71638;BME280;59485;43.542;-5.676;2023-02-16T10:20:12;103010.41;;;12.27;100.00
71638;BME280;59485;43.542;-5.676;2023-02-16T10:22:43;103003.00;;;12.37;100.00
71638;BME280;59485;43.542;-5.676;2023-02-16T10:27:38;103009.81;;;12.52;100.00
71638;BME280;59485;43.542;-5.676;2023-02-16T10:30:14;103004.97;;;12.64;100.00
71638;BME280;59485;43.542;-5.676;2023-02-16T10:32:53;103003.81;;;12.66;100.00
71638;BME280;59485;43.542;-5.676;2023-02-16T10:35:21;103000.47;;;12.72;100.00
71638;BME280;59485;43.542;-5.676;2023-02-16T10:40:25;102997.78;;;12.90;100.00
71638;BME280;59485;43.542;-5.676;2023-02-16T10:42:57;102995.31;;;12.97;100.00
71638;BME280;59485;43.542;-5.676;2023-02-16T10:45:32;102995.09;;;13.08;100.00
71638;BME280;59485;43.542;-5.676;2023-02-16T10:48:00;103000.72;;;13.16;100.00
71638;BME280;59485;43.542;-5.676;2023-02-16T10:50:28;102995.50;;;13.23;100.00
71638;BME280;59485;43.542;-5.676;2023-02-16T10:52:57;102993.88;;;13.30;100.00
71638;BME280;59485;43.542;-5.676;2023-02-16T10:55:23;103003.09;;;13.38;100.00
71638;BME280;59485;43.542;-5.676;2023-02-16T10:57:53;103000.91;;;13.42;100.00
71638;BME280;59485;43.542;-5.676;2023-02-16T11:00:20;103004.06;;;13.47;100.00
71638;BME280;59485;43.542;-5.676;2023-02-16T11:02:47;103001.53;;;13.53;100.00
71638;BME280;59485;43.542;-5.676;2023-02-16T11:07:56;103004.22;;;13.63;100.00
71638;BME280;59485;43.542;-5.676;2023-02-16T11:13:03;103003.06;;;13.83;100.00
71638;BME280;59485;43.542;-5.676;2023-02-16T11:15:28;103008.97;;;13.88;100.00
71638;BME280;59485;43.542;-5.676;2023-02-16T11:20:49;103009.59;;;14.00;100.00
71638;BME280;59485;43.542;-5.676;2023-02-16T11:23:23;103002.56;;;14.06;100.00
71638;BME280;59485;43.542;-5.676;2023-02-16T11:25:59;103005.41;;;14.14;100.00
71638;BME280;59485;43.542;-5.676;2023-02-16T11:28:44;103003.75;;;14.21;100.00
71638;BME280;59485;43.542;-5.676;2023-02-16T11:31:11;103013.22;;;14.18;100.00
71638;BME280;59485;43.542;-5.676;2023-02-16T11:33:38;103012.84;;;14.13;100.00
71638;BME280;59485;43.542;-5.676;2023-02-16T11:36:17;103012.72;;;14.05;100.00
71638;BME280;59485;43.542;-5.676;2023-02-16T11:38:43;103018.25;;;14.05;100.00
71638;BME280;59485;43.542;-5.676;2023-02-16T11:41:20;103025.44;;;13.98;100.00
71638;BME280;59485;43.542;-5.676;2023-02-16T11:43:47;103016.63;;;13.95;100.00
71638;BME280;59485;43.542;-5.676;2023-02-16T11:46:14;103020.84;;;13.89;100.00
71638;BME280;59485;43.542;-5.676;2023-02-16T11:48:40;103026.72;;;13.86;100.00
71638;BME280;59485;43.542;-5.676;2023-02-16T11:51:08;103027.16;;;13.81;100.00
71638;BME280;59485;43.542;-5.676;2023-02-16T11:53:34;103034.03;;;13.77;100.00
71638;BME280;59485;43.542;-5.676;2023-02-16T11:58:44;103038.00;;;13.65;100.00
71638;BME280;59485;43.542;-5.676;2023-02-16T12:13:48;103044.75;;;13.53;100.00
71638;BME280;59485;43.542;-5.676;2023-02-16T12:16:22;103037.78;;;13.59;100.00
71638;BME280;59485;43.542;-5.676;2023-02-16T12:21:41;103040.34;;;13.60;100.00
71638;BME280;59485;43.542;-5.676;2023-02-16T12:26:48;103035.03;;;13.59;100.00
71638;BME280;59485;43.542;-5.676;2023-02-16T12:34:44;103020.47;;;13.66;100.00
71638;BME280;59485;43.542;-5.676;2023-02-16T12:45:08;103016.44;;;13.78;100.00
71638;BME280;59485;43.542;-5.676;2023-02-16T12:47:39;103016.84;;;13.83;100.00
71638;BME280;59485;43.542;-5.676;2023-02-16T12:50:12;103024.81;;;13.86;100.00
71638;BME280;59485;43.542;-5.676;2023-02-16T12:52:40;103026.72;;;13.86;100.00
71638;BME280;59485;43.542;-5.676;2023-02-16T12:57:32;103021.00;;;13.87;100.00
71638;BME280;59485;43.542;-5.676;2023-02-16T13:02:44;103024.09;;;13.84;100.00
71638;BME280;59485;43.542;-5.676;2023-02-16T13:05:28;103026.84;;;13.84;100.00
71638;BME280;59485;43.542;-5.676;2023-02-16T13:07:55;103026.44;;;13.79;100.00
71638;BME280;59485;43.542;-5.676;2023-02-16T13:13:26;103029.19;;;13.79;100.00
71638;BME280;59485;43.542;-5.676;2023-02-16T13:18:25;103029.28;;;13.87;100.00
71638;BME280;59485;43.542;-5.676;2023-02-16T13:20:55;103022.75;;;13.88;100.00
71638;BME280;59485;43.542;-5.676;2023-02-16T13:23:31;103020.72;;;13.90;100.00
71638;BME280;59485;43.542;-5.676;2023-02-16T13:36:31;103010.53;;;14.09;100.00
71638;BME280;59485;43.542;-5.676;2023-02-16T13:39:15;103016.63;;;14.12;100.00
71638;BME280;59485;43.542;-5.676;2023-02-16T13:44:43;103005.31;;;14.06;100.00
71638;BME280;59485;43.542;-5.676;2023-02-16T13:47:12;103005.66;;;14.03;100.00
71638;BME280;59485;43.542;-5.676;2023-02-16T13:49:38;103002.56;;;14.06;100.00
71638;BME280;59485;43.542;-5.676;2023-02-16T13:52:10;103002.25;;;14.09;100.00
71638;BME280;59485;43.542;-5.676;2023-02-16T13:54:50;103000.44;;;14.17;100.00
71638;BME280;59485;43.542;-5.676;2023-02-16T13:57:53;102988.22;;;14.20;100.00
71638;BME280;59485;43.542;-5.676;2023-02-16T14:00:02;102995.78;;;14.18;100.00
71638;BME280;59485;43.542;-5.676;2023-02-16T14:05:17;102998.84;;;14.15;100.00
71638;BME280;59485;43.542;-5.676;2023-02-16T14:07:47;102996.66;;;14.18;100.00
71638;BME280;59485;43.542;-5.676;2023-02-16T14:15:57;102984.34;;;14.31;100.00
71638;BME280;59485;43.542;-5.676;2023-02-16T14:21:16;102974.28;;;14.39;100.00
71638;BME280;59485;43.542;-5.676;2023-02-16T14:23:42;102974.84;;;14.51;100.00
71638;BME280;59485;43.542;-5.676;2023-02-16T14:26:08;102968.84;;;14.55;100.00
71638;BME280;59485;43.542;-5.676;2023-02-16T14:28:50;102958.13;;;14.52;100.00
71638;BME280;59485;43.542;-5.676;2023-02-16T14:31:20;102962.84;;;14.60;100.00
71638;BME280;59485;43.542;-5.676;2023-02-16T14:36:14;102956.44;;;14.59;100.00
71638;BME280;59485;43.542;-5.676;2023-02-16T14:41:06;102956.50;;;14.68;100.00
71638;BME280;59485;43.542;-5.676;2023-02-16T14:43:33;102945.88;;;14.81;100.00
71638;BME280;59485;43.542;-5.676;2023-02-16T14:56:48;102931.00;;;15.16;100.00
71638;BME280;59485;43.542;-5.676;2023-02-16T14:59:25;102921.16;;;15.21;100.00
71638;BME280;59485;43.542;-5.676;2023-02-16T15:01:52;102918.41;;;15.21;100.00
71638;BME280;59485;43.542;-5.676;2023-02-16T15:04:31;102926.00;;;15.19;100.00
71638;BME280;59485;43.542;-5.676;2023-02-16T15:07:00;102923.25;;;15.19;100.00